Tiempo atmosférico en la estación meteorológica de Almendralejo, Badajoz (371 m.)



Fecha
DESCASC
Temp. máxima en grados centígrados (hora)
DESCASC
Temp. mínima en grados centígrados (hora)
DESCASC
Temp. media en grados centígrados
DESCASC
Racha de viento máxima en m/sg (hora)
DESCASC
Velocidad máxima media en intervalos de 10 minutos(hora)
DESCASC
Precipitaciones diarias en mm
DESCASC
Precipitaciones de 00:00 a 06:00 en mm
DESCASC
Precipitaciones de 06:00 a 12:00 en mm
DESCASC
Precipitaciones de 12:00 a 18:00 en mm
DESCASC
Precipitaciones de 18:00 a 24:00 en mm
DESCASC
05-04-2020 20.9 (16:10) 8.8 (07:30) 14.8 14.44 (17:20) 10.28 (17:20) 1.4 0 0 0 1.4
04-04-2020 18.5 (14:40) 7.4 (07:50) 13 11.39 (15:30) 8.06 (15:30) 0 0 0 0 0
03-04-2020 19.8 (16:20) 6.3 (08:00) 13 5.83 (18:10) 3.33 (01:50) 0 0 0 0 0
02-04-2020 16.3 (18:40) 6 (00:00) 11.1 7.5 (14:10) 4.44 (19:50) 2.6 2.6 0 0 0
01-04-2020 13.4 (15:50) 4.4 (00:00) 8.9 11.94 (16:20) 8.61 (16:20) 3 0 0 2.6 0.4
31-03-2020 15.2 (14:20) 7 (00:00) 11.1 9.72 (18:30) 6.11 (14:10) 16.2 4.4 3.8 8 0
30-03-2020 13.8 (13:50) 7.8 (00:00) 10.8 6.67 (18:50) 5 (18:50) 7.4 0 0 7.4 0
29-03-2020 18.6 (15:00) 6.7 (00:00) 12.7 7.78 (18:10) 4.17 (18:20) 0.2 0 0 0 0.2
28-03-2020 17.4 (15:50) 3.8 (00:00) 10.6 7.22 (13:00) 4.72 (02:40) 0 0 0 0 0
27-03-2020 13.1 (18:00) 5.9 (00:00) 9.5 8.61 (00:20) 4.72 (00:30) 0 0 0 0 0
26-03-2020 19.7 (15:10) 8.6 (00:00) 14.2 14.72 (16:20) 8.33 (18:10) 0 0 0 0 0
25-03-2020 19.5 (16:40) 8.4 (00:00) 13.9 7.22 (16:40) 4.72 (23:30) 0 0 0 0 0
24-03-2020 17 (13:30) 8.9 (00:00) 12.9 14.72 (13:30) 9.17 (13:20) 0 0 0 0 0
23-03-2020 16.2 (16:10) 7.7 (00:00) 12 9.17 (16:50) 5.83 (16:50) 0.2 0.2 0 0 0
22-03-2020 15.1 (16:50) 5.8 (07:40) 10.5 8.61 (19:00) 5.28 (19:00) 1.4 0 0 0 1.4
21-03-2020 14.2 (13:50) 7.7 (00:00) 10.9 12.5 (15:00) 8.61 (15:10) 17.6 16.2 0 1 0.4
20-03-2020 15.3 (00:00) 9.5 (00:00) 12.4 9.17 (16:10) 5.56 (16:10) 18.6 0 0 3.6 15
19-03-2020 21.4 (16:20) 7.6 (00:00) 14.5 7.78 (15:40) 4.17 (00:50) 0 0 0 0 0
18-03-2020 21.9 (16:50) 10.8 (00:00) 16.3 10.56 (05:50) 7.22 (13:00) 0 0 0 0 0
17-03-2020 17.2 (16:20) 4.4 (00:00) 10.8 14.17 (14:30) 6.94 (12:00) 0.8 0 0.8 0 0
16-03-2020 11.1 (13:10) 3.5 (00:00) 7.3 17.5 (16:20) 12.22 (15:50) 2.4 0 0 1.2 1.2
15-03-2020 22.8 (14:00) 8.5 (00:00) 15.6 13.61 (21:30) 8.89 (21:30) 0 0 0 0 0
14-03-2020 22.4 (16:20) 8.3 (00:00) 15.3 6.67 (16:20) 3.89 (18:20) 0 0 0 0 0
13-03-2020 18.9 (17:00) 8.9 (07:40) 13.9 7.5 (17:30) 4.72 (17:10) 0 0 0 0 0
12-03-2020 26.6 (15:30) 11.5 (00:00) 19.1 9.44 (13:50) 6.39 (15:00) 0 0 0 0 0
11-03-2020 28.4 (14:30) 9.4 (00:00) 18.9 7.22 (14:10) 4.44 (14:30) 0 0 0 0 0
10-03-2020 25.5 (16:20) 6.6 (00:00) 16 6.11 (11:40) 3.61 (11:40) 0 0 0 0 0

Gráficas

Temp. máximas Temp. mínimas Temp. medias Precipitaciones Rachas de viento máximas Velocidades máximas media en intervalos de 10 minutos

Datos horarios

Fecha y hora oficial Temperatura (ºC) Velocidad del viento (km/h) Dirección del viento Racha (km/h) Dirección de racha Precipitación (mm) Presión (hPa) Tendencia (hPa) Humedad (%)
2020-04-08 23:00:00 17.4 5 Noroeste 9 Oeste 0 -- -- 83
2020-04-08 22:00:00 17.8 7 Nordeste 21 Norte 0 -- -- 80
2020-04-08 21:00:00 18.5 14 Norte 24 Norte 0 -- -- 76
2020-04-08 20:00:00 20.2 7 Noroeste 13 Noroeste 0 -- -- 75
2020-04-08 19:00:00 20.8 5 Nordeste 14 Este 0 -- -- 67
2020-04-08 18:00:00 21.5 7 Este 15 Nordeste 0 -- -- 62
2020-04-08 17:00:00 20.9 7 Este 17 Este 0 -- -- 70
2020-04-08 16:00:00 20.8 8 Nordeste 14 Este 0 -- -- 70
2020-04-08 15:00:00 20.3 4 Este 12 Este 0 -- -- 74
2020-04-08 14:00:00 19.4 5 Este 13 Este 0 -- -- 80
2020-04-08 13:00:00 18.5 6 Este 12 Este 0 -- -- 82
2020-04-08 12:00:00 17.8 5 Sudeste 12 Sudeste 0 -- -- 84
2020-04-08 11:00:00 15.9 8 Sudeste 13 Sudeste 0 -- -- 92
2020-04-08 10:00:00 13.7 5 Sur 9 Sur 0 -- -- 98
2020-04-08 09:00:00 12.8 7 Sudoeste 10 Sudoeste 0 -- -- 99
2020-04-08 08:00:00 12 8 Sur 9 Sudoeste 0 -- -- 99
2020-04-08 07:00:00 12.4 5 Sudeste 7 Este 0 -- -- 98
2020-04-08 06:00:00 13.2 5 Este 7 Este 0 -- -- 97
2020-04-08 05:00:00 13.6 6 Nordeste 8 Nordeste 0 -- -- 98
2020-04-08 04:00:00 13.3 4 Nordeste 12 Norte 0 -- -- 98
2020-04-08 03:00:00 13.5 4 Norte 8 Sudoeste 0 -- -- 96
2020-04-08 02:00:00 13.6 6 Sudoeste 10 Sudoeste 0 -- -- 96
2020-04-08 01:00:00 14 6 Sur 10 Sudoeste 0 -- -- 96
2020-04-08 00:00:00 14.4 6 Sur 8 Sur 0 -- -- 94
2020-04-07 23:00:00 15.2 6 Sudeste 9 Sur 0 -- -- 94
2020-04-07 22:00:00 15.9 6 Sur 8 Sudeste 0 -- -- 92
2020-04-07 21:00:00 16.8 4 Sudeste 6 Este 0 -- -- 89
2020-04-07 20:00:00 17.3 4 Nordeste 6 Noroeste 0 -- -- 81
2020-04-07 19:00:00 17.5 3 Noroeste 8 Noroeste 0 -- -- 82
2020-04-07 18:00:00 17.4 0 Calma 10 Norte 0 -- -- 83
2020-04-07 17:00:00 17.5 5 Noroeste 14 Sudoeste 0 -- -- 83
2020-04-07 16:00:00 17.6 11 Oeste 20 Sudoeste 0 -- -- 81
2020-04-07 15:00:00 17.2 8 Sur 20 Sudoeste 0 -- -- 85
2020-04-07 14:00:00 16 3 Sur 9 Sur 0.2 -- -- 91
2020-04-07 13:00:00 15.1 6 Sur 13 Sur 1.4 -- -- 94
2020-04-07 12:00:00 14.4 7 Sur 18 Sudoeste 0.6 -- -- 93
2020-04-07 11:00:00 14.7 13 Sudoeste 20 Sudoeste 0 -- -- 86
2020-04-07 10:00:00 14 15 Sur 22 Sur 0 -- -- 88
2020-04-07 09:00:00 13.2 14 Sur 22 Sur 0 -- -- 91
2020-04-07 08:00:00 13.3 13 Sur 18 Sudoeste 0 -- -- 91
2020-04-07 07:00:00 13.8 8 Sur 11 Sur 0 -- -- 95
2020-04-07 06:00:00 13.7 10 Sur 15 Sur 5.8 -- -- 95
2020-04-07 05:00:00 13.8 5 Sur 16 Sur 1.2 -- -- 94
2020-04-07 04:00:00 13.9 10 Sur 14 Sur 0 -- -- 93
2020-04-07 03:00:00 14.1 8 Sur 12 Sur 0 -- -- 92
2020-04-07 02:00:00 14.1 6 Sur 12 Sudeste 0 -- -- 92
2020-04-07 01:00:00 14.7 8 Sur 17 Sur 0 -- -- 89
2020-04-07 00:00:00 14.8 12 Sudoeste 17 Sur 0 -- -- 89
2020-04-06 23:00:00 15.2 12 Sudoeste 18 Sur 0 -- -- 86
2020-04-06 22:00:00 16.1 14 Sudoeste 26 Sudoeste 0 -- -- 82
2020-04-06 21:00:00 17 16 Sudoeste 26 Sudoeste 0 -- -- 78
2020-04-06 20:00:00 17.9 17 Sudoeste 24 Sudoeste 0 -- -- 72
2020-04-06 19:00:00 18.6 20 Sudoeste 27 Sudoeste 0 -- -- 69
2020-04-06 18:00:00 19.3 18 Oeste 32 Oeste 0 -- -- 64
2020-04-06 17:00:00 19.6 23 Sudoeste 30 Oeste 0 -- -- 65
2020-04-06 16:00:00 20.2 14 Sudoeste 26 Oeste 0 -- -- 61
2020-04-06 15:00:00 19.2 18 Oeste 27 Sudoeste 0 -- -- 67
2020-04-06 14:00:00 18.9 11 Oeste 22 Oeste 0 -- -- 66
2020-04-06 13:00:00 18 12 Oeste 25 Oeste 0 -- -- 70
2020-04-06 12:00:00 16.7 14 Oeste 25 Oeste 0 -- -- 76
2020-04-06 11:00:00 15.6 19 Sudoeste 26 Oeste 0 -- -- 82
2020-04-06 10:00:00 14.2 6 Sudeste 12 Sudeste 0 -- -- 96
2020-04-06 09:00:00 12.8 2 Nordeste 4 Este 0 -- -- 97
2020-04-06 08:00:00 12.4 0 Calma 5 Sur 0 -- -- 97
2020-04-06 07:00:00 12.4 3 Oeste 8 Noroeste 0 -- -- 96
2020-04-06 06:00:00 13.1 4 Noroeste 10 Noroeste 0 -- -- 95
2020-04-06 05:00:00 13.6 4 Oeste 8 Noroeste 0 -- -- 95
2020-04-06 04:00:00 14 4 Noroeste 10 Oeste 0 -- -- 95
2020-04-06 03:00:00 14 4 Noroeste 14 Sudoeste 0 -- -- 95
2020-04-06 02:00:00 13.9 12 Oeste 28 Sudoeste 0 -- -- 94
2020-04-06 01:00:00 14.5 20 Sudoeste 29 Sudoeste 1 -- -- 92
2020-04-06 00:00:00 14.7 19 Sudoeste 27 Sudoeste 1.4 -- -- 90
2020-04-05 23:00:00 15.2 18 Sudoeste 35 Sudoeste 0 -- -- 86
2020-04-05 22:00:00 16.2 22 Sudoeste 41 Sudoeste 0 -- -- 78
2020-04-05 21:00:00 16.9 24 Sudoeste 40 Sudoeste 0 -- -- 72
2020-04-05 20:00:00 17.7 27 Sudoeste 45 Sudoeste 0 -- -- 69
2020-04-05 19:00:00 18.5 30 Sudoeste 46 Sudoeste 0 -- -- 64
2020-04-05 18:00:00 18.7 32 Sudoeste 52 Sudoeste 0 -- -- 62
2020-04-05 17:00:00 19.8 31 Sudoeste 46 Sudoeste 0 -- -- 57
2020-04-05 16:00:00 20.4 33 Sudoeste 44 Sudoeste 0 -- -- 55
2020-04-05 15:00:00 19.6 28 Sudoeste 46 Sudoeste 0 -- -- 57
2020-04-05 14:00:00 20.2 23 Sudoeste 39 Sudoeste 0 -- -- 56
2020-04-05 13:00:00 19 22 Sudoeste 39 Sudoeste 0 -- -- 59
2020-04-05 12:00:00 17.6 21 Sudoeste 33 Sudoeste 0 -- -- 64
2020-04-05 11:00:00 15 22 Sur 33 Sur 0 -- -- 69
2020-04-05 10:00:00 12.4 17 Sur 25 Sur 0 -- -- 74
2020-04-05 09:00:00 10 8 Sur 20 Sur 0 -- -- 83
2020-04-05 08:00:00 8.8 11 Sur 15 Sur 0 -- -- 84
2020-04-05 07:00:00 9.3 11 Sur 22 Sudoeste 0 -- -- 80
2020-04-05 06:00:00 9.3 10 Sur 21 Sur 0 -- -- 81
2020-04-05 05:00:00 10 13 Sur 19 Sur 0 -- -- 80
2020-04-05 04:00:00 10 12 Sur 22 Sur 0 -- -- 81
2020-04-05 03:00:00 10.4 13 Sur 23 Sur 0 -- -- 83
2020-04-05 02:00:00 11.3 12 Sur 18 Sur 0 -- -- 82
2020-04-05 01:00:00 12.3 10 Sur 22 Sur 0 -- -- 80
2020-04-05 00:00:00 13.1 17 Sur 26 Sur 0 -- -- 79
2020-04-04 23:00:00 13.8 13 Sur 22 Sudoeste 0 -- -- 73
2020-04-04 22:00:00 14 8 Sur 13 Sur 0 -- -- 73
2020-04-04 21:00:00 14.6 9 Sur 18 Sur 0 -- -- 68
2020-04-04 20:00:00 15.3 12 Sur 26 Sur 0 -- -- 65
2020-04-04 19:00:00 15.9 19 Sudoeste 28 Sur 0 -- -- 59
2020-04-04 18:00:00 16.5 17 Sudoeste 28 Sudoeste 0 -- -- 54
2020-04-04 17:00:00 16.8 19 Sudoeste 32 Sudoeste 0 -- -- 52
2020-04-04 16:00:00 17.3 24 Sudoeste 41 Sudoeste 0 -- -- 47
2020-04-04 15:00:00 18.3 20 Sudoeste 40 Sudoeste 0 -- -- 45
2020-04-04 14:00:00 17.3 25 Sur 35 Sur 0 -- -- 46
2020-04-04 13:00:00 15.5 19 Sur 29 Sur 0 -- -- 57
2020-04-04 12:00:00 14.6 17 Sur 30 Sur 0 -- -- 63
2020-04-04 11:00:00 13.1 13 Sudeste 28 Sur 0 -- -- 71
2020-04-04 10:00:00 11.4 13 Sur 23 Sudeste 0 -- -- 75
2020-04-04 09:00:00 8.7 10 Sudeste 15 Sudeste 0 -- -- 84
2020-04-04 08:00:00 7.4 9 Sudeste 16 Sudeste 0 -- -- 88
2020-04-04 07:00:00 8 9 Sur 15 Sur 0 -- -- 86
2020-04-04 06:00:00 8.3 7 Sudeste 20 Sur 0 -- -- 86
2020-04-04 05:00:00 8.9 9 Sur 17 Sur 0 -- -- 84
2020-04-04 04:00:00 9.4 4 Sudeste 18 Sur 0 -- -- 82
2020-04-04 03:00:00 10.4 13 Sur 19 Sur 0 -- -- 77
2020-04-04 02:00:00 11.3 7 Sur 18 Sur 0 -- -- 76
2020-04-04 01:00:00 11.8 8 Sudeste 14 Sur 0 -- -- 78
2020-04-04 00:00:00 13.3 9 Sur 14 Sur 0 -- -- 70
2020-04-03 23:00:00 13.7 5 Sudeste 9 Este 0 -- -- 69
2020-04-03 22:00:00 14.9 7 Este 9 Este 0 -- -- 62
2020-04-03 21:00:00 16.5 5 Sudeste 12 Este 0 -- -- 55
2020-04-03 20:00:00 17.9 7 Este 15 Este 0 -- -- 52
2020-04-03 19:00:00 19.1 8 Sudeste 21 Sur 0 -- -- 42
2020-04-03 18:00:00 19.6 10 Este 18 Este 0 -- -- 44
2020-04-03 17:00:00 19.8 7 Sur 20 Sur 0 -- -- 41
2020-04-03 16:00:00 19.2 5 Sudeste 18 Sudeste 0 -- -- 46
2020-04-03 15:00:00 19.1 5 Oeste 14 Sur 0 -- -- 52
2020-04-03 14:00:00 17.8 7 Sudeste 14 Sudeste 0 -- -- 58
2020-04-03 13:00:00 16.4 9 Sur 18 Sur 0 -- -- 64
2020-04-03 12:00:00 14.5 6 Sudeste 12 Sur 0 -- -- 75
2020-04-03 11:00:00 12.9 4 Sudeste 7 Sur 0 -- -- 77
2020-04-03 10:00:00 10.8 2 Sur 6 Sur 0 -- -- 85
2020-04-03 09:00:00 7.4 4 Sur 8 Sur 0 -- -- 94
2020-04-03 08:00:00 6.3 4 Sur 8 Sur 0 -- -- 95
2020-04-03 07:00:00 7.6 7 Oeste 12 Oeste 0 -- -- 95
2020-04-03 06:00:00 7.2 9 Oeste 10 Oeste 0 -- -- 93
2020-04-03 05:00:00 8.8 6 Noroeste 10 Noroeste 0 -- -- 92
2020-04-03 04:00:00 9.3 5 Noroeste 12 Noroeste 0 -- -- 90
2020-04-03 03:00:00 9.7 9 Noroeste 15 Noroeste 0 -- -- 88
2020-04-03 02:00:00 10.6 9 Noroeste 17 Noroeste 0 -- -- 84
2020-04-03 01:00:00 11.1 12 Noroeste 19 Noroeste 0 -- -- 78
2020-04-03 00:00:00 11 10 Oeste 13 Oeste 0 -- -- 79
2020-04-02 23:00:00 11.5 8 Oeste 11 Oeste 0 -- -- 78
2020-04-02 22:00:00 13 8 Noroeste 14 Noroeste 0 -- -- 68
2020-04-02 21:00:00 13.8 11 Noroeste 21 Noroeste 0 -- -- 66
2020-04-02 20:00:00 15.1 12 Noroeste 26 Noroeste 0 -- -- 62
2020-04-02 19:00:00 16.1 15 Norte 25 Norte 0 -- -- 59
2020-04-02 18:00:00 15.6 8 Norte 18 Norte 0 -- -- 61
2020-04-02 17:00:00 15.1 9 Norte 21 Norte 0 -- -- 62
2020-04-02 16:00:00 14.5 8 Nordeste 16 Nordeste 0 -- -- 67
2020-04-02 15:00:00 13.4 10 Nordeste 27 Nordeste 0 -- -- 67
2020-04-02 14:00:00 12.1 13 Este 20 Nordeste 0 -- -- 73
2020-04-02 13:00:00 10.2 12 Nordeste 18 Este 0 -- -- 83
2020-04-02 12:00:00 8.7 10 Este 19 Nordeste 0 -- -- 89
2020-04-02 11:00:00 7.9 8 Nordeste 14 Nordeste 0 -- -- 92
2020-04-02 10:00:00 7.3 9 Nordeste 16 Nordeste 0 -- -- 93
2020-04-02 09:00:00 6.8 9 Nordeste 18 Nordeste 0 -- -- 96
2020-04-02 08:00:00 6.6 7 Nordeste 11 Nordeste 0 -- -- 98
2020-04-02 07:00:00 6 4 Nordeste 9 Nordeste 0 -- -- 97
2020-04-02 06:00:00 6.7 5 Este 9 Este 0 -- -- 96
2020-04-02 05:00:00 7.1 4 Este 8 Este 0 -- -- 94
2020-04-02 04:00:00 7.7 4 Norte 13 Norte 2.4 -- -- 92
2020-04-02 03:00:00 8.8 7 Sudoeste 13 Sur 0 -- -- 95
2020-04-02 02:00:00 8.9 10 Sur 15 Sur 0 -- -- 94
2020-04-02 01:00:00 8.9 12 Sur 17 Sur 0.2 -- -- 93
2020-04-02 00:00:00 8.9 10 Sur 19 Sur 0.4 -- -- 91
2020-04-01 23:00:00 9.7 13 Sur 21 Sur 0 -- -- 85
2020-04-01 22:00:00 10.1 13 Sur 21 Sur 0 -- -- 82
2020-04-01 21:00:00 10.4 12 Sur 28 Sudoeste 0 -- -- 80
2020-04-01 20:00:00 11.3 17 Sudoeste 29 Sur 0 -- -- 75
2020-04-01 19:00:00 12.1 19 Sudoeste 31 Sudoeste 0 -- -- 69
2020-04-01 18:00:00 11.9 15 Sudoeste 30 Sudoeste 0 -- -- 75
2020-04-01 17:00:00 11.4 18 Sudoeste 43 Oeste 2.6 -- -- 79
2020-04-01 16:00:00 13.2 5 Noroeste 11 Noroeste 0 -- -- 66
2020-04-01 15:00:00 11.4 8 Norte 23 Norte 0 -- -- 77
2020-04-01 14:00:00 10.3 14 Noroeste 28 Oeste 0 -- -- 79
2020-04-01 13:00:00 10.8 5 Sudoeste 14 Sudoeste 0 -- -- 68
2020-04-01 12:00:00 10.6 9 Sudoeste 15 Sudoeste 0 -- -- 69
2020-04-01 11:00:00 9.3 9 Sur 18 Sur 0 -- -- 74
2020-04-01 10:00:00 7.4 11 Sur 15 Sudoeste 0 -- -- 87
2020-04-01 09:00:00 5.1 9 Sudoeste 13 Sudoeste 0 -- -- 94
2020-04-01 08:00:00 4.5 10 Sudoeste 13 Sudoeste 0 -- -- 94
2020-04-01 07:00:00 5.4 6 Sudoeste 9 Sudoeste 0 -- -- 92
2020-04-01 06:00:00 6.1 2 Oeste 6 Oeste 0 -- -- 89
2020-04-01 05:00:00 6.9 4 Noroeste 11 Noroeste 0 -- -- 88
2020-04-01 04:00:00 6.6 4 Noroeste 6 Noroeste 0 -- -- 90
2020-04-01 03:00:00 6.9 0 Calma 7 Oeste 0 -- -- 89
2020-04-01 02:00:00 7 3 Oeste 8 Oeste 0 -- -- 91
2020-04-01 01:00:00 6.9 6 Oeste 12 Noroeste 0 -- -- 91
2020-04-01 00:00:00 7.6 5 Noroeste 13 Noroeste 0 -- -- 89
2020-03-31 23:00:00 8 5 Noroeste 22 Noroeste 0 -- -- 90
2020-03-31 22:00:00 8.7 17 Noroeste 30 Noroeste 0 -- -- 89
2020-03-31 21:00:00 10.7 16 Noroeste 25 Noroeste 0 -- -- 83
2020-03-31 20:00:00 12 12 Noroeste 29 Oeste 0 -- -- 82
2020-03-31 19:00:00 12.8 15 Noroeste 35 Noroeste 0 -- -- 80
2020-03-31 18:00:00 13.3 14 Noroeste 26 Noroeste 0 -- -- 86
2020-03-31 17:00:00 12.4 13 Noroeste 28 Noroeste 5.4 -- -- 91
2020-03-31 16:00:00 13.3 6 Noroeste 20 Noroeste 0.6 -- -- 88
2020-03-31 15:00:00 12.2 10 Noroeste 33 Oeste 1.6 -- -- 92
2020-03-31 14:00:00 14.5 22 Sudoeste 32 Sudoeste 0.2 -- -- 83
2020-03-31 13:00:00 12.1 5 Noroeste 26 Sudoeste 0.2 -- -- 91
2020-03-31 12:00:00 11.6 10 Sur 17 Sur 0 -- -- 88
2020-03-31 11:00:00 9.7 6 Sudeste 13 Sudeste 0 -- -- 100
2020-03-31 10:00:00 8.1 6 Sudeste 14 Este 0.2 -- -- 100
2020-03-31 09:00:00 7 8 Este 13 Este 0.2 -- -- 99
2020-03-31 08:00:00 7.4 8 Este 13 Este 1 -- -- 99
2020-03-31 07:00:00 8.3 9 Este 15 Este 2.4 -- -- 99
2020-03-31 06:00:00 8.1 10 Este 18 Este 1.2 -- -- 99
2020-03-31 05:00:00 8.1 12 Este 24 Este 1.8 -- -- 98
2020-03-31 04:00:00 8.1 13 Este 23 Este 1.2 -- -- 97
2020-03-31 03:00:00 8.7 15 Este 23 Este 0 -- -- 96
2020-03-31 02:00:00 8.7 15 Este 23 Este 0.2 -- -- 96
2020-03-31 01:00:00 8.7 12 Este 21 Este 0 -- -- 97
2020-03-31 00:00:00 8.6 9 Este 16 Este 0 -- -- 94
2020-03-30 23:00:00 9.3 10 Sudeste 15 Sudeste 0 -- -- 90
2020-03-30 22:00:00 9.6 6 Sudeste 9 Sudeste 0 -- -- 89
2020-03-30 21:00:00 10.5 7 Sudeste 18 Sur 0 -- -- 85
2020-03-30 20:00:00 11 10 Sur 19 Sur 0 -- -- 86
2020-03-30 19:00:00 11 14 Sudoeste 24 Sudoeste 0 -- -- 83
2020-03-30 18:00:00 11.5 2 Este 8 Este 0.2 -- -- 89
2020-03-30 17:00:00 11.4 6 Este 12 Este 0.2 -- -- 91
2020-03-30 16:00:00 10.9 5 Este 19 Nordeste 6.4 -- -- 94
2020-03-30 15:00:00 12.4 10 Este 15 Nordeste 0.6 -- -- 87
2020-03-30 14:00:00 13.8 6 Este 12 Este 0 -- -- 78
2020-03-30 13:00:00 13 7 Sudeste 10 Este 0 -- -- 80
2020-03-30 12:00:00 13.1 2 Sudeste 6 Sur 0 -- -- 77
2020-03-30 11:00:00 11.1 3 Sudeste 8 Sudeste 0 -- -- 87
2020-03-30 10:00:00 9.6 5 Sur 8 Sudeste 0 -- -- 90
2020-03-30 09:00:00 9.4 4 Sudoeste 11 Sudoeste 0 -- -- 91
2020-03-30 08:00:00 8.1 8 Sudoeste 10 Sudoeste 0 -- -- 91
2020-03-30 07:00:00 8 6 Sudoeste 7 Sudoeste 0 -- -- 91
2020-03-30 06:00:00 8.3 7 Sudoeste 10 Sudoeste 0 -- -- 88
2020-03-30 05:00:00 9.4 8 Oeste 12 Oeste 0 -- -- 84
2020-03-30 04:00:00 10.5 10 Oeste 14 Noroeste 0 -- -- 82
2020-03-30 03:00:00 11.3 8 Sudoeste 13 Sudoeste 0 -- -- 79
2020-03-30 02:00:00 12.1 11 Sudoeste 15 Sudoeste 0 -- -- 80
2020-03-30 01:00:00 12.5 9 Sur 14 Sur 0 -- -- 81
2020-03-30 00:00:00 12.8 10 Sur 14 Sur 0 -- -- 81
2020-03-29 23:00:00 13.3 8 Sur 13 Sur 0.2 -- -- 80
2020-03-29 22:00:00 14.2 6 Sur 14 Oeste 0 -- -- 72
2020-03-29 21:00:00 15.2 7 Noroeste 21 Norte 0 -- -- 62
2020-03-29 20:00:00 16.4 13 Norte 19 Norte 0 -- -- 54
2020-03-29 19:00:00 17.2 12 Norte 28 Nordeste 0 -- -- 53
2020-03-29 18:00:00 18.1 13 Nordeste 21 Nordeste 0 -- -- 46
2020-03-29 17:00:00 18 7 Oeste 16 Noroeste 0 -- -- 44
2020-03-29 16:00:00 17.9 5 Sudeste 14 Nordeste 0 -- -- 44
2020-03-29 15:00:00 18.6 6 Noroeste 14 Norte 0 -- -- 44
2020-03-29 14:00:00 17.5 3 Norte 12 Nordeste 0 -- -- 51
2020-03-29 13:00:00 17 4 Sudeste 11 Sudeste 0 -- -- 53
2020-03-29 12:00:00 15.5 3 Sudeste 9 Sudeste 0 -- -- 57
2020-03-29 11:00:00 13.5 4 Sudeste 9 Sudeste 0 -- -- 66
2020-03-29 10:00:00 10.7 3 Sur 9 Sur 0 -- -- 77
2020-03-29 09:00:00 7.4 5 Sur 10 Sur 0 -- -- 86
2020-03-29 08:00:00 7.1 6 Sudoeste 9 Sudoeste 0 -- -- 84
2020-03-29 07:00:00 7.2 6 Sur 11 Sudoeste 0 -- -- 82
2020-03-29 06:00:00 8.4 3 Oeste 4 Oeste 0 -- -- 77
2020-03-29 05:00:00 8.3 2 Sur 8 Sudeste 0 -- -- 77
2020-03-29 03:00:00 9 10 Sudoeste 21 Sudoeste 0 -- -- 71
2020-03-29 01:00:00 9.6 9 Sur 10 Sur 0 -- -- 69
2020-03-29 00:00:00 11.9 8 Este 9 Este 0 -- -- 58
2020-03-28 23:00:00 11.8 6 Sudeste 7 Este 0 -- -- 57
2020-03-28 22:00:00 12.3 8 Este 12 Nordeste 0 -- -- 55
2020-03-28 21:00:00 13.3 9 Este 14 Nordeste 0 -- -- 51
2020-03-28 20:00:00 14.3 8 Este 14 Este 0 -- -- 53
2020-03-28 19:00:00 16.3 10 Este 17 Este 0 -- -- 47
2020-03-28 18:00:00 16.6 10 Este 19 Sudeste 0 -- -- 46
2020-03-28 17:00:00 17.1 13 Sudeste 21 Este 0 -- -- 45
2020-03-28 16:00:00 17.2 10 Sudeste 22 Sudeste 0 -- -- 47
2020-03-28 15:00:00 16.3 11 Este 23 Sudeste 0 -- -- 50
2020-03-28 14:00:00 15.1 11 Este 22 Sudeste 0 -- -- 55
2020-03-28 13:00:00 14.1 14 Este 26 Este 0 -- -- 60
2020-03-28 12:00:00 12.7 13 Este 20 Este 0 -- -- 63
2020-03-28 11:00:00 10.5 12 Sudeste 18 Sudeste 0 -- -- 69
2020-03-28 10:00:00 8.1 15 Sudeste 22 Sudeste 0 -- -- 75
2020-03-28 09:00:00 6.1 12 Sudeste 22 Sudeste 0 -- -- 82
2020-03-28 08:00:00 4.7 14 Sudeste 20 Sudeste 0 -- -- 85
2020-03-28 07:00:00 4 13 Sudeste 19 Sudeste 0 -- -- 87
2020-03-28 06:00:00 4 12 Sudeste 18 Sudeste 0 -- -- 87
2020-03-28 05:00:00 4.3 9 Sudeste 18 Este 0 -- -- 86
2020-03-28 04:00:00 5 13 Sudeste 21 Sudeste 0 -- -- 83
2020-03-28 03:00:00 5.2 14 Este 23 Este 0 -- -- 81
2020-03-28 02:00:00 6 13 Sudeste 18 Sudeste 0 -- -- 77
2020-03-28 01:00:00 6.5 10 Sudeste 16 Este 0 -- -- 75
2020-03-28 00:00:00 7.1 13 Sudeste 21 Sudeste 0 -- -- 73
2020-03-27 23:00:00 7.9 8 Sudeste 21 Sudeste 0 -- -- 71
2020-03-27 22:00:00 9.1 14 Sudeste 22 Sudeste 0 -- -- 70
2020-03-27 21:00:00 10.1 14 Sudeste 22 Este 0 -- -- 66
2020-03-27 20:00:00 11.2 8 Sudeste 21 Este 0 -- -- 65
2020-03-27 19:00:00 12.8 14 Sudeste 26 Sudeste 0 -- -- 57
2020-03-27 18:00:00 13.1 13 Sudeste 24 Sudeste 0 -- -- 64
2020-03-27 17:00:00 12.3 12 Sudeste 18 Sudeste 0 -- -- 68
2020-03-27 16:00:00 10.9 9 Sudeste 16 Sudeste 0 -- -- 72
2020-03-27 15:00:00 11 10 Este 19 Este 0 -- -- 70
2020-03-27 14:00:00 10.5 8 Este 18 Este 0 -- -- 74
2020-03-27 13:00:00 10 9 Este 16 Este 0 -- -- 78
2020-03-27 12:00:00 9.5 2 Este 12 Oeste 0 -- -- 77
2020-03-27 11:00:00 8.8 6 Oeste 16 Oeste 0 -- -- 80
2020-03-27 10:00:00 8 10 Oeste 19 Oeste 0 -- -- 86
2020-03-27 09:00:00 7.3 8 Noroeste 17 Noroeste 0 -- -- 90
2020-03-27 08:00:00 6.7 10 Noroeste 21 Noroeste 0 -- -- 92
2020-03-27 07:00:00 6.2 11 Noroeste 25 Noroeste 0 -- -- 95
2020-03-27 06:00:00 5.9 15 Noroeste 27 Noroeste 0 -- -- 94
2020-03-27 05:00:00 6.4 15 Noroeste 24 Noroeste 0 -- -- 92
2020-03-27 04:00:00 6.7 12 Noroeste 21 Noroeste 0 -- -- 91
2020-03-27 03:00:00 7.4 14 Noroeste 22 Noroeste 0 -- -- 89
2020-03-27 02:00:00 8 14 Noroeste 21 Noroeste 0 -- -- 88
2020-03-27 01:00:00 8.9 12 Noroeste 31 Noroeste 0 -- -- 84
2020-03-27 00:00:00 10 17 Noroeste 31 Noroeste 0 -- -- 80
2020-03-26 23:00:00 11.1 21 Noroeste 31 Noroeste 0 -- -- 76
2020-03-26 22:00:00 12.2 21 Noroeste 34 Noroeste 0 -- -- 68
2020-03-26 21:00:00 13.5 14 Noroeste 32 Noroeste 0 -- -- 66
2020-03-26 20:00:00 15.2 20 Noroeste 37 Noroeste 0 -- -- 61
2020-03-26 19:00:00 17 27 Noroeste 42 Noroeste 0 -- -- 52
2020-03-26 18:00:00 18.4 30 Noroeste 45 Noroeste 0 -- -- 45
2020-03-26 17:00:00 19 27 Noroeste 53 Noroeste 0 -- -- 44
2020-03-26 16:00:00 19.5 26 Noroeste 41 Noroeste 0 -- -- 47
2020-03-26 15:00:00 19.4 22 Noroeste 40 Noroeste 0 -- -- 47
2020-03-26 14:00:00 18.5 24 Noroeste 37 Noroeste 0 -- -- 46
2020-03-26 13:00:00 17.6 21 Noroeste 33 Noroeste 0 -- -- 56
2020-03-26 12:00:00 15.7 16 Noroeste 26 Noroeste 0 -- -- 64
2020-03-26 11:00:00 13.5 13 Noroeste 23 Noroeste 0 -- -- 75
2020-03-26 10:00:00 10.9 17 Noroeste 31 Noroeste 0 -- -- 83
2020-03-26 09:00:00 9.9 18 Noroeste 24 Noroeste 0 -- -- 88
2020-03-26 08:00:00 8.8 16 Noroeste 21 Noroeste 0 -- -- 93
2020-03-26 07:00:00 8.9 10 Noroeste 17 Noroeste 0 -- -- 92
2020-03-26 06:00:00 9.5 10 Noroeste 19 Noroeste 0 -- -- 91
2020-03-26 05:00:00 10.3 12 Noroeste 19 Noroeste 0 -- -- 89
2020-03-26 04:00:00 11.2 13 Noroeste 19 Noroeste 0 -- -- 88
2020-03-26 03:00:00 11.9 10 Noroeste 17 Noroeste 0 -- -- 86
2020-03-26 02:00:00 12.2 10 Oeste 21 Oeste 0 -- -- 86
2020-03-26 01:00:00 12.8 15 Noroeste 23 Oeste 0 -- -- 85
2020-03-26 00:00:00 12.9 17 Oeste 25 Oeste 0 -- -- 86
2020-03-25 23:00:00 13.6 11 Noroeste 24 Oeste 0 -- -- 75
2020-03-25 22:00:00 14.8 10 Noroeste 17 Noroeste 0 -- -- 63
2020-03-25 21:00:00 15.4 8 Noroeste 14 Noroeste 0 -- -- 59
2020-03-25 20:00:00 16.3 9 Noroeste 21 Norte 0 -- -- 54
2020-03-25 19:00:00 17.9 14 Norte 23 Noroeste 0 -- -- 46
2020-03-25 18:00:00 19.1 15 Noroeste 24 Noroeste 0 -- -- 45
2020-03-25 17:00:00 19.2 12 Norte 26 Noroeste 0 -- -- 46
2020-03-25 16:00:00 19.1 13 Norte 23 Norte 0 -- -- 47
2020-03-25 15:00:00 18.4 9 Norte 21 Norte 0 -- -- 50
2020-03-25 14:00:00 18.1 7 Nordeste 15 Nordeste 0 -- -- 49
2020-03-25 13:00:00 17.3 3 Sudoeste 15 Noroeste 0 -- -- 56
2020-03-25 12:00:00 15.6 5 Noroeste 12 Noroeste 0 -- -- 64
2020-03-25 11:00:00 13.1 3 Sur 9 Sudoeste 0 -- -- 73
2020-03-25 10:00:00 11.6 5 Sur 11 Sudoeste 0 -- -- 77
2020-03-25 09:00:00 10.1 7 Sudeste 12 Sudeste 0 -- -- 81
2020-03-25 08:00:00 9.2 9 Sudeste 12 Sudeste 0 -- -- 83
2020-03-25 07:00:00 9.1 8 Sudeste 13 Sudeste 0 -- -- 83
2020-03-25 06:00:00 8.5 8 Sudeste 13 Este 0 -- -- 87
2020-03-25 05:00:00 8.7 10 Este 20 Este 0 -- -- 86
2020-03-25 04:00:00 8.7 14 Este 19 Este 0 -- -- 85
2020-03-25 03:00:00 9 8 Este 14 Este 0 -- -- 83
2020-03-25 02:00:00 10.3 10 Sudeste 19 Este 0 -- -- 79
2020-03-25 01:00:00 11.1 12 Sudeste 19 Este 0 -- -- 76
2020-03-25 00:00:00 11.3 13 Sudeste 27 Este 0 -- -- 75
2020-03-24 23:00:00 11.8 20 Sudeste 38 Este 0 -- -- 71
2020-03-24 22:00:00 12.5 15 Sudeste 30 Este 0 -- -- 71
2020-03-24 21:00:00 14 18 Este 34 Este 0 -- -- 65
2020-03-24 20:00:00 14.9 21 Este 31 Este 0 -- -- 62
2020-03-24 19:00:00 15.5 19 Este 35 Este 0 -- -- 61
2020-03-24 18:00:00 16 22 Este 33 Este 0 -- -- 60
2020-03-24 17:00:00 16.4 23 Este 36 Este 0 -- -- 59
2020-03-24 16:00:00 16.6 23 Este 44 Este 0 -- -- 59
2020-03-24 15:00:00 16.9 27 Este 49 Este 0 -- -- 57
2020-03-24 14:00:00 16.6 30 Este 53 Sudeste 0 -- -- 58
2020-03-24 13:00:00 16 30 Este 52 Sudeste 0 -- -- 62
2020-03-24 12:00:00 16.2 30 Este 47 Sudeste 0 -- -- 61
2020-03-24 11:00:00 14.4 32 Este 46 Este 0 -- -- 66
2020-03-24 10:00:00 13.5 24 Este 36 Este 0 -- -- 72
2020-03-24 09:00:00 11.6 18 Este 29 Este 0 -- -- 81
2020-03-24 08:00:00 9.4 7 Este 15 Este 0 -- -- 88
2020-03-24 07:00:00 9.3 6 Este 17 Este 0 -- -- 89
2020-03-24 06:00:00 10 15 Este 23 Este 0 -- -- 89
2020-03-24 05:00:00 9.6 12 Este 21 Este 0 -- -- 93
2020-03-24 04:00:00 9.9 9 Nordeste 13 Este 0 -- -- 93
2020-03-24 03:00:00 9.6 9 Nordeste 14 Nordeste 0 -- -- 93
2020-03-24 02:00:00 9 4 Nordeste 10 Este 0 -- -- 91
2020-03-24 01:00:00 9.6 5 Sudeste 13 Sudeste 0 -- -- 90
2020-03-24 00:00:00 9.8 9 Sur 14 Sur 0 -- -- 88
2020-03-23 23:00:00 10.9 10 Sudeste 15 Sur 0 -- -- 81
2020-03-23 22:00:00 11.3 12 Sudeste 30 Nordeste 0 -- -- 78
2020-03-23 21:00:00 11.3 5 Nordeste 8 Este 0 -- -- 73
2020-03-23 20:00:00 12.4 5 Este 15 Este 0 -- -- 68
2020-03-23 19:00:00 14.4 10 Sudeste 19 Sudeste 0 -- -- 62
2020-03-23 18:00:00 14.8 9 Sudeste 20 Sudeste 0 -- -- 66
2020-03-23 17:00:00 13.4 18 Sudeste 33 Sudeste 0 -- -- 69
2020-03-23 16:00:00 16 15 Este 27 Este 0 -- -- 52
2020-03-23 15:00:00 15.5 16 Este 25 Este 0 -- -- 58
2020-03-23 14:00:00 14.4 14 Este 26 Este 0 -- -- 62
2020-03-23 13:00:00 13.5 14 Este 23 Este 0 -- -- 68
2020-03-23 12:00:00 13.5 10 Sudeste 23 Este 0 -- -- 73
2020-03-23 11:00:00 11.9 12 Sudeste 20 Sudeste 0 -- -- 81
2020-03-23 10:00:00 10.6 9 Este 17 Sudeste 0 -- -- 97
2020-03-23 09:00:00 8.4 8 Este 14 Este 0 -- -- 99
2020-03-23 08:00:00 7.8 6 Este 10 Este 0 -- -- 97
2020-03-23 07:00:00 7.8 5 Este 7 Este 0 -- -- 96
2020-03-23 06:00:00 8.2 3 Sudeste 6 Sur 0.2 -- -- 94
2020-03-23 05:00:00 8.8 3 Sudeste 9 Este 0 -- -- 93
2020-03-23 04:00:00 9.2 5 Este 10 Este 0 -- -- 94
2020-03-23 03:00:00 9.6 5 Sudeste 6 Sudeste 0 -- -- 93
2020-03-23 02:00:00 10.2 0 Calma 5 Sur 0 -- -- 90
2020-03-23 01:00:00 10.3 5 Sudoeste 8 Sudoeste 0 -- -- 86
2020-03-23 00:00:00 10.3 6 Sur 10 Sudeste 0 -- -- 87
2020-03-22 23:00:00 10.7 8 Sudeste 12 Sudeste 0 -- -- 89
2020-03-22 22:00:00 10.9 4 Este 6 Este 0 -- -- 88
2020-03-22 21:00:00 10.9 4 Sudeste 7 Sudeste 0 -- -- 87
2020-03-22 20:00:00 11.2 5 Sudeste 27 Este 0.8 -- -- 87
2020-03-22 19:00:00 12.8 19 Este 31 Este 0.6 -- -- 75
2020-03-22 18:00:00 15 11 Nordeste 22 Nordeste 0 -- -- 51
2020-03-22 17:00:00 15.1 10 Nordeste 18 Nordeste 0 -- -- 51
2020-03-22 16:00:00 14.6 12 Nordeste 21 Nordeste 0 -- -- 59
2020-03-22 15:00:00 14.3 10 Este 18 Nordeste 0 -- -- 64
2020-03-22 14:00:00 13.8 10 Este 16 Este 0 -- -- 67
2020-03-22 13:00:00 12.6 6 Nordeste 17 Este 0 -- -- 74
2020-03-22 12:00:00 12.2 6 Sudeste 17 Este 0 -- -- 75
2020-03-22 11:00:00 10.7 8 Este 15 Este 0 -- -- 81
2020-03-22 10:00:00 9.8 6 Este 13 Este 0 -- -- 85
2020-03-22 09:00:00 8.2 5 Este 10 Este 0 -- -- 92
2020-03-22 08:00:00 6.4 5 Este 7 Este 0 -- -- 99
2020-03-22 07:00:00 6.2 4 Este 8 Este 0 -- -- 97
2020-03-22 06:00:00 6.9 5 Este 9 Sudeste 0 -- -- 97
2020-03-22 05:00:00 7.6 5 Sudeste 8 Sudeste 0 -- -- 96
2020-03-22 04:00:00 7.8 4 Este 8 Este 0 -- -- 96
2020-03-22 03:00:00 7.9 4 Este 7 Sur 0 -- -- 96
2020-03-22 02:00:00 8 4 Este 8 Sudeste 0 -- -- 95
2020-03-22 01:00:00 8.2 5 Sudeste 8 Sudeste 0 -- -- 93
2020-03-22 00:00:00 8.2 3 Sudeste 6 Sudeste 0 -- -- 94
2020-03-21 23:00:00 8.2 5 Sudeste 10 Sudeste 0 -- -- 95
2020-03-21 22:00:00 8.3 4 Sudeste 11 Sudeste 0.2 -- -- 92
2020-03-21 21:00:00 8.3 8 Sur 15 Sur 0 -- -- 92
2020-03-21 20:00:00 8.6 8 Sudeste 22 Sur 0.2 -- -- 88
2020-03-21 19:00:00 9.2 14 Sur 28 Sur 0 -- -- 87
2020-03-21 18:00:00 10.3 17 Sur 30 Sur 0.2 -- -- 81
2020-03-21 17:00:00 10.5 18 Sur 38 Sur 0.8 -- -- 80
2020-03-21 16:00:00 11.3 17 Sudoeste 41 Sudoeste 0 -- -- 81
2020-03-21 15:00:00 12.6 30 Sur 45 Sur 0 -- -- 72
2020-03-21 14:00:00 14.1 17 Sur 28 Sur 0 -- -- 65
2020-03-21 13:00:00 12.7 8 Sur 18 Sur 0 -- -- 67
2020-03-21 12:00:00 11.4 3 Sudeste 15 Sur 0 -- -- 73
2020-03-21 11:00:00 11.2 10 Sudoeste 23 Sudoeste 0 -- -- 76
2020-03-21 10:00:00 9.7 11 Sudoeste 17 Sudoeste 0 -- -- 84
2020-03-21 09:00:00 9 7 Sur 12 Sur 0 -- -- 88
2020-03-21 08:00:00 7.8 8 Oeste 16 Oeste 0 -- -- 91
2020-03-21 07:00:00 8.2 12 Oeste 21 Oeste 0 -- -- 91
2020-03-21 06:00:00 8.8 10 Oeste 15 Oeste 0 -- -- 94
2020-03-21 05:00:00 8.8 8 Noroeste 19 Noroeste 0.2 -- -- 95
2020-03-21 04:00:00 9 6 Noroeste 20 Oeste 2 -- -- 97
2020-03-21 03:00:00 9.6 5 Oeste 11 Oeste 5 -- -- 99
2020-03-21 02:00:00 9.6 2 Nordeste 13 Nordeste 4 -- -- 99
2020-03-21 01:00:00 9.8 4 Norte 10 Norte 5 -- -- 99
2020-03-21 00:00:00 9.8 5 Noroeste 17 Nordeste 6 -- -- 98
2020-03-20 23:00:00 9.5 11 Nordeste 26 Noroeste 8 -- -- 97
2020-03-20 22:00:00 10.5 17 Noroeste 28 Noroeste 1 -- -- 95
2020-03-20 21:00:00 12.2 8 Nordeste 13 Norte 0 -- -- 97
2020-03-20 20:00:00 12.6 7 Nordeste 13 Nordeste 0 -- -- 96
2020-03-20 19:00:00 13.3 9 Nordeste 11 Nordeste 0 -- -- 94
2020-03-20 18:00:00 13.9 7 Noroeste 13 Sudoeste 0.2 -- -- 90
2020-03-20 17:00:00 13.4 5 Oeste 33 Sudoeste 2.6 -- -- 89
2020-03-20 16:00:00 14.9 14 Sur 28 Sudoeste 0.8 -- -- 78
2020-03-20 15:00:00 15 3 Noroeste 14 Sudoeste 0 -- -- 77
2020-03-20 14:00:00 14.4 9 Sur 16 Sudoeste 0 -- -- 78
2020-03-20 13:00:00 13.8 8 Sudeste 15 Sudeste 0 -- -- 84
2020-03-20 12:00:00 13.3 10 Sur 14 Sur 0 -- -- 85
2020-03-20 11:00:00 12.8 9 Sur 16 Sur 0 -- -- 88
2020-03-20 10:00:00 13.1 8 Sur 15 Sudoeste 0 -- -- 82
2020-03-20 09:00:00 12.5 11 Sudoeste 19 Sur 0 -- -- 83
2020-03-20 08:00:00 11.9 11 Sur 17 Sur 0 -- -- 86
2020-03-20 07:00:00 12.1 11 Sur 17 Sur 0 -- -- 83
2020-03-20 06:00:00 12.6 7 Sudeste 10 Sudeste 0 -- -- 81
2020-03-20 05:00:00 13.7 8 Sur 14 Sur 0 -- -- 73
2020-03-20 04:00:00 14 9 Sur 14 Sur 0 -- -- 70
2020-03-20 03:00:00 14.4 6 Sur 16 Sudoeste 0 -- -- 67
2020-03-20 02:00:00 13.9 10 Sur 13 Sur 0 -- -- 65
2020-03-20 01:00:00 14.5 8 Sur 12 Sur 0 -- -- 61
2020-03-20 00:00:00 15.3 8 Sudoeste 11 Sur 0 -- -- 60
2020-03-19 23:00:00 15.7 5 Sudeste 8 Sur 0 -- -- 59
2020-03-19 22:00:00 16.1 6 Sur 9 Sudeste 0 -- -- 58
2020-03-19 21:00:00 16.3 5 Sudeste 9 Este 0 -- -- 55
2020-03-19 20:00:00 18 6 Sudeste 15 Sudeste 0 -- -- 50
2020-03-19 19:00:00 19.1 10 Sudeste 19 Sudeste 0 -- -- 47
2020-03-19 18:00:00 20 11 Este 21 Este 0 -- -- 44
2020-03-19 17:00:00 21 10 Este 23 Nordeste 0 -- -- 42
2020-03-19 16:00:00 21 11 Este 28 Este 0 -- -- 42
2020-03-19 15:00:00 20.2 10 Este 27 Este 0 -- -- 44
2020-03-19 14:00:00 19.6 13 Este 24 Este 0 -- -- 46
2020-03-19 13:00:00 18.4 13 Este 22 Este 0 -- -- 50
2020-03-19 12:00:00 16.5 14 Este 21 Este 0 -- -- 57
2020-03-19 11:00:00 15 12 Este 21 Este 0 -- -- 62
2020-03-19 10:00:00 12.8 11 Sudeste 16 Este 0 -- -- 68
2020-03-19 09:00:00 10.2 8 Sudeste 13 Sudeste 0 -- -- 78
2020-03-19 08:00:00 7.8 9 Sur 11 Este 0 -- -- 83
2020-03-19 07:00:00 7.8 7 Sur 12 Este 0 -- -- 82
2020-03-19 06:00:00 8.9 7 Sudeste 13 Sudeste 0 -- -- 81
2020-03-19 05:00:00 9 10 Sur 12 Sur 0 -- -- 81
2020-03-19 04:00:00 10.3 4 Sur 17 Sudeste 0 -- -- 75
2020-03-19 03:00:00 12.1 10 Sudeste 19 Sudeste 0 -- -- 70
2020-03-19 02:00:00 13 12 Sudeste 17 Este 0 -- -- 67
2020-03-19 01:00:00 13.2 13 Este 21 Este 0 -- -- 66
2020-03-19 00:00:00 13.8 13 Sudeste 20 Este 0 -- -- 64
2020-03-18 23:00:00 14.7 15 Este 26 Sudeste 0 -- -- 61
2020-03-18 22:00:00 15.6 16 Este 30 Este 0 -- -- 60
2020-03-18 21:00:00 16.6 14 Este 31 Este 0 -- -- 57
2020-03-18 20:00:00 17.8 15 Este 34 Este 0 -- -- 54
2020-03-18 19:00:00 20.2 15 Este 30 Sudeste 0 -- -- 48
2020-03-18 18:00:00 21.3 16 Este 26 Este 0 -- -- 44
2020-03-18 17:00:00 21.7 17 Sudeste 27 Sudeste 0 -- -- 41
2020-03-18 16:00:00 21.8 16 Este 30 Este 0 -- -- 41
2020-03-18 15:00:00 20.8 16 Sudeste 33 Este 0 -- -- 45
2020-03-18 14:00:00 20.1 21 Este 35 Sudeste 0 -- -- 47
2020-03-18 13:00:00 18.9 26 Sudeste 38 Este 0 -- -- 51
2020-03-18 12:00:00 17.7 19 Sudeste 34 Este 0 -- -- 55
2020-03-18 11:00:00 16.1 22 Sudeste 36 Sudeste 0 -- -- 59
2020-03-18 10:00:00 14.5 23 Sudeste 35 Sudeste 0 -- -- 64
2020-03-18 09:00:00 12.4 21 Sudeste 32 Este 0 -- -- 74
2020-03-18 08:00:00 11 16 Este 28 Este 0 -- -- 78
2020-03-18 07:00:00 11.2 14 Sudeste 31 Este 0 -- -- 77
2020-03-18 06:00:00 11.7 21 Este 38 Este 0 -- -- 77
2020-03-18 05:00:00 12.2 20 Este 28 Sudeste 0 -- -- 78
2020-03-18 04:00:00 12.7 15 Este 24 Este 0 -- -- 78
2020-03-18 03:00:00 13 14 Sudeste 27 Este 0 -- -- 78
2020-03-18 02:00:00 13 8 Este 16 Sudeste 0 -- -- 79
2020-03-18 01:00:00 13 10 Sudeste 23 Este 0 -- -- 78
2020-03-18 00:00:00 12.3 10 Este 16 Este 0 -- -- 72
2020-03-17 23:00:00 11.7 11 Nordeste 17 Este 0 -- -- 59
2020-03-17 22:00:00 12.7 8 Este 16 Este 0 -- -- 58
2020-03-17 21:00:00 14.1 10 Sudeste 20 Este 0 -- -- 47
2020-03-17 20:00:00 14 9 Este 17 Este 0 -- -- 46
2020-03-17 19:00:00 16.1 13 Este 30 Este 0 -- -- 41
2020-03-17 18:00:00 17 20 Sudeste 35 Este 0 -- -- 36
2020-03-17 17:00:00 16.9 21 Sudeste 43 Este 0 -- -- 36
2020-03-17 16:00:00 16.9 23 Sudeste 39 Sudeste 0 -- -- 37
2020-03-17 15:00:00 16.2 20 Sudeste 51 Sudeste 0 -- -- 44
2020-03-17 14:00:00 16 22 Sudeste 39 Sudeste 0 -- -- 46
2020-03-17 13:00:00 14.4 23 Sudeste 40 Sudeste 0 -- -- 50
2020-03-17 12:00:00 11.7 25 Sudeste 39 Sudeste 0 -- -- 64
2020-03-17 11:00:00 10.6 21 Sudeste 32 Sudeste 0 -- -- 72
2020-03-17 10:00:00 7.5 16 Sudeste 27 Sudeste 0 -- -- 86
2020-03-17 09:00:00 5.5 13 Este 23 Este 0 -- -- 92
2020-03-17 08:00:00 5.2 12 Sudeste 23 Este 0 -- -- 93
2020-03-17 07:00:00 5.7 12 Sudeste 19 Sudeste 0.8 -- -- 94
2020-03-17 06:00:00 5.7 13 Sudeste 21 Sudeste 0 -- -- 90
2020-03-17 05:00:00 5.6 10 Este 18 Este 0 -- -- 90
2020-03-17 04:00:00 5.2 12 Este 18 Este 0 -- -- 90
2020-03-17 03:00:00 4.7 8 Nordeste 14 Nordeste 0 -- -- 89
2020-03-17 02:00:00 4.8 10 Nordeste 17 Nordeste 0 -- -- 88
2020-03-17 01:00:00 4.4 10 Nordeste 15 Nordeste 0 -- -- 90
2020-03-17 00:00:00 4.8 9 Nordeste 18 Norte 0 -- -- 90
2020-03-16 23:00:00 5.4 11 Nordeste 17 Nordeste 0 -- -- 88
2020-03-16 22:00:00 6.4 13 Nordeste 33 Nordeste 0 -- -- 85
2020-03-16 21:00:00 7.3 21 Nordeste 36 Nordeste 0 -- -- 88
2020-03-16 20:00:00 6.9 16 Norte 37 Norte 0.4 -- -- 93
2020-03-16 19:00:00 7.2 27 Norte 55 Norte 0.8 -- -- 86
2020-03-16 18:00:00 7 39 Norte 62 Norte 1 -- -- 84
2020-03-16 17:00:00 9.1 38 Norte 63 Nordeste 0.2 -- -- 64
2020-03-16 16:00:00 10.1 41 Norte 59 Norte 0 -- -- 56
2020-03-16 15:00:00 10.1 39 Norte 58 Norte 0 -- -- 56
2020-03-16 14:00:00 10.8 37 Norte 52 Norte 0 -- -- 49
2020-03-16 13:00:00 11 33 Norte 51 Norte 0 -- -- 49
2020-03-16 12:00:00 9.8 28 Norte 45 Norte 0 -- -- 52
2020-03-16 11:00:00 9.3 23 Norte 42 Noroeste 0 -- -- 59
2020-03-16 10:00:00 7.9 22 Noroeste 33 Noroeste 0 -- -- 66
2020-03-16 09:00:00 5.3 20 Noroeste 29 Noroeste 0 -- -- 81
2020-03-16 08:00:00 3.5 16 Noroeste 27 Noroeste 0 -- -- 88
2020-03-16 07:00:00 3.5 15 Noroeste 26 Noroeste 0 -- -- 87
2020-03-16 06:00:00 3.8 12 Noroeste 25 Noroeste 0 -- -- 83
2020-03-16 05:00:00 4.3 15 Noroeste 27 Noroeste 0 -- -- 79
2020-03-16 04:00:00 4.6 17 Noroeste 26 Norte 0 -- -- 78
2020-03-16 03:00:00 5.1 12 Noroeste 28 Noroeste 0 -- -- 77
2020-03-16 02:00:00 6.1 17 Noroeste 31 Noroeste 0 -- -- 76
2020-03-16 01:00:00 7.1 25 Noroeste 41 Noroeste 0 -- -- 75
2020-03-16 00:00:00 8.5 28 Noroeste 40 Noroeste 0 -- -- 71
2020-03-15 23:00:00 10.3 23 Noroeste 42 Norte 0 -- -- 70
2020-03-15 22:00:00 11.9 24 Noroeste 49 Norte 0 -- -- 70
2020-03-15 21:00:00 14.1 29 Norte 46 Norte 0 -- -- 56
2020-03-15 20:00:00 15.4 25 Noroeste 44 Noroeste 0 -- -- 63
2020-03-15 19:00:00 16.5 28 Noroeste 42 Noroeste 0 -- -- 65
2020-03-15 18:00:00 18.3 26 Noroeste 44 Noroeste 0 -- -- 59
2020-03-15 17:00:00 20.7 29 Noroeste 47 Noroeste 0 -- -- 53
2020-03-15 16:00:00 22.2 22 Noroeste 38 Noroeste 0 -- -- 50
2020-03-15 15:00:00 21.5 19 Noroeste 33 Noroeste 0 -- -- 52
2020-03-15 14:00:00 22.8 15 Noroeste 30 Noroeste 0 -- -- 49
2020-03-15 13:00:00 21.8 12 Noroeste 23 Noroeste 0 -- -- 49
2020-03-15 12:00:00 20.9 15 Noroeste 25 Noroeste 0 -- -- 54
2020-03-15 11:00:00 18.7 6 Oeste 11 Oeste 0 -- -- 61
2020-03-15 10:00:00 14.9 4 Sur 11 Sur 0 -- -- 69
2020-03-15 09:00:00 13.1 9 Sudoeste 16 Sudoeste 0 -- -- 71
2020-03-15 08:00:00 11.8 12 Sudoeste 15 Sudoeste 0 -- -- 75
2020-03-15 07:00:00 11.4 7 Sur 12 Sudoeste 0 -- -- 73
2020-03-15 06:00:00 10.3 9 Sudoeste 11 Sur 0 -- -- 73
2020-03-15 05:00:00 11.3 3 Sudoeste 6 Sur 0 -- -- 70
2020-03-15 04:00:00 12.8 0 Calma 5 Noroeste 0 -- -- 64
2020-03-15 03:00:00 13.9 5 Oeste 8 Oeste 0 -- -- 66
2020-03-15 02:00:00 14.4 5 Oeste 10 Oeste 0 -- -- 64
2020-03-15 01:00:00 15.1 3 Oeste 9 Sudoeste 0 -- -- 62
2020-03-15 00:00:00 15.8 5 Oeste 7 Oeste 0 -- -- 60
2020-03-14 23:00:00 16.3 6 Oeste 9 Oeste 0 -- -- 59
2020-03-14 22:00:00 17.2 4 Noroeste 8 Noroeste 0 -- -- 55
2020-03-14 21:00:00 17.3 6 Noroeste 8 Norte 0 -- -- 54
2020-03-14 20:00:00 18.7 5 Nordeste 16 Nordeste 0 -- -- 50
2020-03-14 19:00:00 20.8 13 Norte 24 Nordeste 0 -- -- 47
2020-03-14 18:00:00 21.8 13 Norte 22 Norte 0 -- -- 46
2020-03-14 17:00:00 22.1 11 Nordeste 24 Nordeste 0 -- -- 43
2020-03-14 16:00:00 22.3 13 Nordeste 22 Nordeste 0 -- -- 48
2020-03-14 15:00:00 21.8 11 Norte 22 Norte 0 -- -- 55
2020-03-14 14:00:00 20.9 6 Norte 21 Norte 0 -- -- 59
2020-03-14 13:00:00 19 10 Nordeste 20 Nordeste 0 -- -- 66
2020-03-14 12:00:00 17.9 9 Este 16 Este 0 -- -- 70
2020-03-14 11:00:00 16.7 6 Este 14 Sur 0 -- -- 74
2020-03-14 10:00:00 14.6 2 Sur 11 Sudoeste 0 -- -- 83
2020-03-14 09:00:00 10.6 9 Sudoeste 13 Sudoeste 0 -- -- 95
2020-03-14 08:00:00 8.3 7 Sur 8 Sur 0 -- -- 96
2020-03-14 07:00:00 9 2 Nordeste 3 Nordeste 0 -- -- 96
2020-03-14 06:00:00 9.2 3 Sudoeste 9 Sudoeste 0 -- -- 94
2020-03-14 05:00:00 9.5 6 Oeste 11 Oeste 0 -- -- 92
2020-03-14 04:00:00 10.5 6 Oeste 14 Noroeste 0 -- -- 89
2020-03-14 03:00:00 11.3 9 Noroeste 13 Noroeste 0 -- -- 92
2020-03-14 02:00:00 11.4 8 Oeste 12 Noroeste 0 -- -- 87
2020-03-14 01:00:00 11.5 8 Oeste 10 Noroeste 0 -- -- 90
2020-03-14 00:00:00 11.6 8 Oeste 10 Oeste 0 -- -- 88
2020-03-13 23:00:00 11.8 8 Oeste 11 Oeste 0 -- -- 84
2020-03-13 22:00:00 13.1 8 Oeste 14 Noroeste 0 -- -- 79
2020-03-13 21:00:00 14.1 10 Noroeste 17 Noroeste 0 -- -- 78
2020-03-13 20:00:00 15.4 13 Noroeste 18 Noroeste 0 -- -- 73
2020-03-13 19:00:00 17 14 Noroeste 21 Noroeste 0 -- -- 68
2020-03-13 18:00:00 17.8 12 Noroeste 27 Noroeste 0 -- -- 65
2020-03-13 17:00:00 18.9 16 Noroeste 26 Norte 0 -- -- 61
2020-03-13 16:00:00 18.7 13 Norte 22 Noroeste 0 -- -- 60
2020-03-13 15:00:00 16.2 9 Noroeste 21 Norte 0 -- -- 69
2020-03-13 14:00:00 15.7 7 Noroeste 15 Noroeste 0 -- -- 73
2020-03-13 13:00:00 12.8 8 Noroeste 14 Noroeste 0 -- -- 87
2020-03-13 12:00:00 11.4 5 Norte 12 Noroeste 0 -- -- 95
2020-03-13 11:00:00 11.1 5 Noroeste 10 Noroeste 0 -- -- 98
2020-03-13 10:00:00 10.8 6 Noroeste 12 Noroeste 0 -- -- 98
2020-03-13 09:00:00 10.4 4 Noroeste 11 Noroeste 0 -- -- 98
2020-03-13 08:00:00 9.2 6 Norte 13 Norte 0 -- -- 97
2020-03-13 07:00:00 9.3 8 Norte 12 Noroeste 0 -- -- 94
2020-03-13 06:00:00 10.2 0 Calma 10 Noroeste 0 -- -- 87
2020-03-13 05:00:00 11.2 6 Noroeste 9 Noroeste 0 -- -- 86
2020-03-13 04:00:00 11.4 3 Sur 7 Noroeste 0 -- -- 81
2020-03-13 03:00:00 13.6 6 Noroeste 8 Oeste 0 -- -- 83
2020-03-13 02:00:00 13.9 8 Oeste 12 Oeste 0 -- -- 78
2020-03-13 01:00:00 14.2 11 Oeste 14 Oeste 0 -- -- 71
2020-03-13 00:00:00 14.5 12 Oeste 14 Oeste 0 -- -- 69
2020-03-12 23:00:00 15.7 8 Oeste 11 Oeste 0 -- -- 66
2020-03-12 22:00:00 17.1 10 Oeste 24 Oeste 0 -- -- 62
2020-03-12 21:00:00 18.4 15 Noroeste 25 Oeste 0 -- -- 59
2020-03-12 20:00:00 19.5 14 Noroeste 24 Noroeste 0 -- -- 54
2020-03-12 19:00:00 21.4 20 Noroeste 27 Noroeste 0 -- -- 50
2020-03-12 18:00:00 23.6 20 Noroeste 31 Noroeste 0 -- -- 46
2020-03-12 17:00:00 25.4 13 Noroeste 30 Oeste 0 -- -- 39
2020-03-12 16:00:00 25.3 18 Oeste 28 Oeste 0 -- -- 34
2020-03-12 15:00:00 26.1 23 Oeste 32 Sudoeste 0 -- -- 31
2020-03-12 14:00:00 25.7 15 Sudoeste 34 Oeste 0 -- -- 31
2020-03-12 13:00:00 24.4 13 Sudoeste 23 Sudoeste 0 -- -- 34
2020-03-12 12:00:00 23.3 11 Sudoeste 21 Sudoeste 0 -- -- 37
2020-03-12 11:00:00 20.4 7 Sudeste 14 Este 0 -- -- 47
2020-03-12 10:00:00 18.1 9 Sur 14 Sur 0 -- -- 49
2020-03-12 09:00:00 14.2 13 Sur 18 Sur 0 -- -- 57
2020-03-12 08:00:00 11.5 12 Sur 20 Sur 0 -- -- 61
2020-03-12 07:00:00 12.4 12 Sur 20 Sur 0 -- -- 59
2020-03-12 06:00:00 13.7 13 Sudoeste 17 Sudoeste 0 -- -- 55
2020-03-12 05:00:00 14.9 13 Sudoeste 14 Sur 0 -- -- 54
2020-03-12 04:00:00 14.7 12 Sur 17 Sur 0 -- -- 54
2020-03-12 03:00:00 13.5 14 Sur 17 Sur 0 -- -- 54
2020-03-12 02:00:00 15 14 Sur 16 Sudoeste 0 -- -- 50
2020-03-12 01:00:00 16.5 12 Sur 15 Sur 0 -- -- 49
2020-03-12 00:00:00 17 12 Sudoeste 14 Sudoeste 0 -- -- 50
2020-03-11 23:00:00 18.3 9 Sur 13 Sur 0 -- -- 50
2020-03-11 22:00:00 19.9 8 Sudeste 12 Este 0 -- -- 48
2020-03-11 21:00:00 20.4 9 Este 13 Este 0 -- -- 49
2020-03-11 20:00:00 21.9 10 Este 18 Este 0 -- -- 46
2020-03-11 19:00:00 24.3 11 Este 18 Este 0 -- -- 41
2020-03-11 18:00:00 25.9 13 Este 23 Este 0 -- -- 37
2020-03-11 17:00:00 27 15 Este 22 Nordeste 0 -- -- 35
2020-03-11 16:00:00 26.9 15 Este 24 Nordeste 0 -- -- 36
2020-03-11 15:00:00 27.8 16 Este 26 Este 0 -- -- 32
2020-03-11 14:00:00 27 15 Este 23 Este 0 -- -- 35
2020-03-11 13:00:00 25.9 12 Este 20 Este 0 -- -- 38
2020-03-11 12:00:00 24.2 9 Este 19 Este 0 -- -- 39
2020-03-11 11:00:00 21.5 9 Sudeste 17 Sudeste 0 -- -- 43
2020-03-11 10:00:00 17.4 11 Sudeste 17 Sudeste 0 -- -- 52
2020-03-11 09:00:00 12.8 10 Sur 14 Sur 0 -- -- 60
2020-03-11 08:00:00 9.8 11 Sur 15 Sur 0 -- -- 64
2020-03-11 07:00:00 10.6 12 Sur 14 Sur 0 -- -- 63
2020-03-11 06:00:00 10.6 11 Sudoeste 15 Sudoeste 0 -- -- 60
2020-03-11 05:00:00 10.4 10 Sur 12 Sur 0 -- -- 61
2020-03-11 04:00:00 11 8 Sur 9 Sur 0 -- -- 55
2020-03-11 03:00:00 13.1 4 Sur 14 Sur 0 -- -- 54
2020-03-11 02:00:00 13.3 12 Sur 13 Sur 0 -- -- 53
2020-03-11 01:00:00 14.2 8 Sur 10 Sudoeste 0 -- -- 50
2020-03-11 00:00:00 15.5 5 Sur 6 Este 0 -- -- 48
2020-03-10 23:00:00 16.3 5 Este 8 Nordeste 0 -- -- 49
2020-03-10 22:00:00 17.8 7 Nordeste 10 Nordeste 0 -- -- 45
2020-03-10 21:00:00 19 9 Nordeste 13 Nordeste 0 -- -- 40
2020-03-10 20:00:00 20.3 10 Nordeste 11 Nordeste 0 -- -- 37
2020-03-10 19:00:00 23.3 8 Este 15 Este 0 -- -- 33
2020-03-10 18:00:00 24.8 9 Este 17 Este 0 -- -- 31
2020-03-10 17:00:00 25.3 9 Este 18 Este 0 -- -- 31
2020-03-10 16:00:00 25.4 8 Este 19 Este 0 -- -- 31
2020-03-10 15:00:00 24.9 9 Este 18 Sudeste 0 -- -- 32
2020-03-10 14:00:00 24.4 5 Sudeste 15 Sur 0 -- -- 30
2020-03-10 13:00:00 22.8 8 Sur 19 Sur 0 -- -- 32
2020-03-10 12:00:00 20.5 9 Sudeste 22 Sur 0 -- -- 36
2020-03-10 11:00:00 17.6 12 Sur 17 Sur 0 -- -- 46
2020-03-10 10:00:00 13.6 9 Sudeste 15 Sudeste 0 -- -- 63
2020-03-10 09:00:00 9 9 Sur 12 Sur 0 -- -- 73
2020-03-10 08:00:00 6.6 6 Sur 7 Sudoeste 0 -- -- 78
2020-03-10 07:00:00 7.2 6 Sur 10 Sur 0 -- -- 82
2020-03-10 06:00:00 6.9 7 Sur 10 Sur 0 -- -- 78
2020-03-10 05:00:00 9.2 5 Noroeste 9 Noroeste 0 -- -- 79
2020-03-10 04:00:00 8.8 5 Oeste 9 Noroeste 0 -- -- 77
2020-03-10 03:00:00 10.1 5 Noroeste 11 Noroeste 0 -- -- 75
2020-03-10 02:00:00 9.7 7 Noroeste 14 Oeste 0 -- -- 73
2020-03-10 01:00:00 10.8 9 Noroeste 13 Noroeste 0 -- -- 65
2020-03-10 00:00:00 11.9 6 Noroeste 11 Noroeste 0 -- -- 63